createdAt,value
2019-05-18T00:00:49.304Z,11.40
2019-05-18T00:03:24.625Z,11.40
2019-05-18T00:06:07.139Z,11.50
2019-05-18T00:08:58.188Z,11.40
2019-05-18T00:11:32.149Z,11.40
2019-05-18T00:14:25.326Z,11.50
2019-05-18T00:17:02.082Z,11.40
2019-05-18T00:19:43.198Z,11.40
2019-05-18T00:22:21.644Z,11.40
2019-05-18T00:24:57.331Z,11.40
2019-05-18T00:27:33.462Z,11.40
2019-05-18T00:30:10.526Z,11.40
2019-05-18T00:32:47.215Z,11.40
2019-05-18T00:35:28.830Z,11.30
2019-05-18T00:38:06.869Z,11.20
2019-05-18T00:40:43.907Z,11.30
2019-05-18T00:43:22.435Z,11.20
2019-05-18T00:45:58.202Z,11.10
2019-05-18T00:48:34.775Z,11.00
2019-05-18T00:51:10.060Z,10.90
2019-05-18T00:53:44.145Z,10.80
2019-05-18T00:56:22.941Z,10.90
2019-05-18T00:58:59.867Z,10.90
2019-05-18T01:01:38.202Z,10.80
2019-05-18T01:04:15.352Z,10.80
2019-05-18T01:06:55.461Z,10.80
2019-05-18T01:09:33.306Z,10.70
2019-05-18T01:12:04.637Z,10.70
2019-05-18T01:14:42.171Z,10.60
2019-05-18T01:17:17.301Z,10.70
2019-05-18T01:19:48.213Z,10.70
2019-05-18T01:22:18.990Z,10.60
2019-05-18T01:24:53.897Z,10.60
2019-05-18T01:27:29.595Z,10.50
2019-05-18T01:30:07.344Z,10.40
2019-05-18T01:32:43.349Z,10.40
2019-05-18T01:35:20.306Z,10.50
2019-05-18T01:37:57.282Z,10.40
2019-05-18T01:40:35.848Z,10.40
2019-05-18T01:43:13.892Z,10.50
2019-05-18T01:45:51.416Z,10.40
2019-05-18T01:48:28.677Z,10.50
2019-05-18T01:51:07.771Z,10.50
2019-05-18T01:53:49.687Z,10.40
2019-05-18T01:56:25.010Z,10.40
2019-05-18T01:59:03.957Z,10.40
2019-05-18T02:01:44.806Z,10.40
2019-05-18T02:04:20.317Z,10.30
2019-05-18T02:06:57.532Z,10.20
2019-05-18T02:09:32.379Z,10.30
2019-05-18T02:12:08.659Z,10.40
2019-05-18T02:14:45.117Z,10.40
2019-05-18T02:17:15.784Z,10.40
2019-05-18T02:19:51.445Z,10.30
2019-05-18T02:22:29.705Z,10.20
2019-05-18T02:25:08.116Z,10.20
2019-05-18T02:27:47.160Z,10.30
2019-05-18T02:30:22.692Z,10.30
2019-05-18T02:32:53.617Z,10.20
2019-05-18T02:35:24.242Z,10.20
2019-05-18T02:38:18.928Z,10.20
2019-05-18T02:40:58.583Z,10.30
2019-05-18T02:43:36.180Z,10.30
2019-05-18T02:46:15.493Z,10.20
2019-05-18T02:48:50.017Z,10.20
2019-05-18T02:51:19.733Z,10.10
2019-05-18T02:53:50.609Z,10.20
2019-05-18T02:56:21.716Z,10.20
2019-05-18T02:58:52.634Z,10.20
2019-05-18T03:01:23.585Z,10.10
2019-05-18T03:03:54.252Z,10.00
2019-05-18T03:06:26.092Z,9.90
2019-05-18T03:08:56.928Z,9.90
2019-05-18T03:11:27.829Z,9.80
2019-05-18T03:13:58.725Z,9.70
2019-05-18T03:16:29.603Z,9.60
2019-05-18T03:19:08.088Z,9.60
2019-05-18T03:21:32.895Z,9.60
2019-05-18T03:24:03.639Z,9.50
2019-05-18T03:26:34.831Z,9.50
2019-05-18T03:29:05.962Z,9.40
2019-05-18T03:31:36.762Z,9.50
2019-05-18T03:34:07.756Z,9.60
2019-05-18T03:36:38.794Z,9.50
2019-05-18T03:39:09.627Z,9.50
2019-05-18T03:41:40.635Z,9.50
2019-05-18T03:44:11.253Z,9.60
2019-05-18T03:46:41.904Z,9.50
2019-05-18T03:49:26.380Z,9.50
2019-05-18T03:51:45.127Z,9.50
2019-05-18T03:54:15.864Z,9.60
2019-05-18T03:56:47.048Z,9.70
2019-05-18T03:59:17.884Z,9.70
2019-05-18T04:01:48.509Z,9.70
2019-05-18T04:04:19.286Z,9.70
2019-05-18T04:06:49.947Z,9.80
2019-05-18T04:09:20.725Z,9.80
2019-05-18T04:11:51.386Z,9.90
2019-05-18T04:14:22.010Z,9.90
2019-05-18T04:16:52.920Z,9.90
2019-05-18T04:19:23.809Z,9.90
2019-05-18T04:21:54.422Z,9.90
2019-05-18T04:24:26.534Z,10.00
2019-05-18T04:26:57.122Z,10.00
2019-05-18T04:29:28.075Z,10.00
2019-05-18T04:31:59.027Z,10.10
2019-05-18T04:34:29.887Z,10.30
2019-05-18T04:37:01.067Z,10.10
2019-05-18T04:39:31.986Z,10.10
2019-05-18T04:42:03.096Z,10.30
2019-05-18T04:44:34.005Z,10.30
2019-05-18T04:47:05.005Z,10.90
2019-05-18T04:49:35.964Z,11.70
2019-05-18T04:52:31.021Z,11.80
2019-05-18T04:55:01.677Z,11.60
2019-05-18T04:57:32.622Z,11.00
2019-05-18T05:00:03.250Z,10.80
2019-05-18T05:02:34.450Z,10.70
2019-05-18T05:05:12.580Z,10.60
2019-05-18T05:07:49.234Z,10.70
2019-05-18T05:10:21.306Z,10.90
2019-05-18T05:12:52.065Z,11.00
2019-05-18T05:15:22.918Z,11.00
2019-05-18T05:17:53.901Z,10.90
2019-05-18T05:20:24.772Z,11.10
2019-05-18T05:22:55.398Z,11.30
2019-05-18T05:25:27.591Z,11.90
2019-05-18T05:27:58.342Z,11.70
2019-05-18T05:30:29.396Z,11.60
2019-05-18T05:33:00.016Z,12.30
2019-05-18T05:35:31.195Z,13.00
2019-05-18T05:38:02.077Z,13.20
2019-05-18T05:40:33.039Z,13.10
2019-05-18T05:43:03.970Z,13.00
2019-05-18T05:45:35.135Z,12.90
2019-05-18T05:48:06.051Z,12.90
2019-05-18T05:51:06.784Z,13.50
2019-05-18T05:53:47.680Z,14.30
2019-05-18T05:56:18.425Z,15.00
2019-05-18T05:58:50.011Z,15.10
2019-05-18T06:01:20.574Z,16.10
2019-05-18T06:03:58.479Z,16.00
2019-05-18T06:06:29.363Z,16.40
2019-05-18T06:09:17.381Z,17.20
2019-05-18T06:11:57.453Z,16.40
2019-05-18T06:14:28.122Z,17.30
2019-05-18T06:17:15.430Z,16.00
2019-05-18T06:19:47.670Z,16.10
2019-05-18T06:22:18.293Z,16.30
2019-05-18T06:24:49.385Z,17.00
2019-05-18T06:29:50.128Z,16.20
2019-05-18T06:32:24.276Z,15.80
2019-05-18T06:34:55.069Z,15.40
2019-05-18T06:37:27.451Z,15.80
2019-05-18T06:39:58.019Z,15.50
2019-05-18T06:42:29.275Z,15.50
2019-05-18T06:45:00.234Z,15.50
2019-05-18T06:47:31.175Z,15.10
2019-05-18T06:50:02.102Z,14.80
2019-05-18T06:52:33.307Z,14.80
2019-05-18T06:55:04.151Z,14.70
2019-05-18T06:57:36.035Z,14.80
2019-05-18T07:00:07.636Z,15.10
2019-05-18T07:02:38.527Z,14.80
2019-05-18T07:05:09.535Z,15.10
2019-05-18T07:07:40.437Z,15.40
2019-05-18T07:10:11.936Z,15.60
2019-05-18T07:12:42.794Z,15.80
2019-05-18T07:15:14.153Z,15.80
2019-05-18T07:17:45.376Z,15.50
2019-05-18T07:20:16.275Z,15.80
2019-05-18T07:22:47.261Z,15.70
2019-05-18T07:25:18.278Z,15.70
2019-05-18T07:27:49.204Z,16.00
2019-05-18T07:30:20.033Z,17.00
2019-05-18T07:32:50.638Z,17.80
2019-05-18T07:35:27.678Z,17.70
2019-05-18T07:38:09.351Z,17.80
2019-05-18T07:40:42.854Z,17.80
2019-05-18T07:43:13.945Z,18.70
2019-05-18T07:45:44.598Z,19.30
2019-05-18T07:48:17.880Z,19.00
2019-05-18T07:50:48.520Z,19.50
2019-05-18T07:53:24.546Z,18.90
2019-05-18T07:56:19.970Z,18.80
2019-05-18T07:58:50.608Z,18.80
2019-05-18T08:01:21.761Z,20.00
2019-05-18T08:03:52.773Z,18.90
2019-05-18T08:06:23.652Z,20.10
2019-05-18T08:08:54.534Z,21.00
2019-05-18T08:11:25.607Z,21.40
2019-05-18T08:13:56.735Z,21.80
2019-05-18T08:16:27.925Z,20.90
2019-05-18T08:18:59.708Z,20.50
2019-05-18T08:21:30.859Z,20.20
2019-05-18T08:24:18.726Z,19.60
2019-05-18T08:26:49.673Z,19.70
2019-05-18T08:29:20.573Z,19.60
2019-05-18T08:31:51.477Z,21.20
2019-05-18T08:34:22.347Z,20.30
2019-05-18T08:36:54.330Z,20.50
2019-05-18T08:39:26.900Z,20.30
2019-05-18T08:41:57.885Z,20.30
2019-05-18T08:45:12.106Z,20.20
2019-05-18T08:47:39.566Z,19.40
2019-05-18T08:50:11.389Z,20.30
2019-05-18T08:52:42.037Z,22.10
2019-05-18T08:55:13.340Z,22.60
2019-05-18T08:57:44.632Z,22.30
2019-05-18T09:00:17.116Z,22.30
2019-05-18T09:02:48.028Z,22.30
2019-05-18T09:05:19.058Z,22.30
2019-05-18T09:07:49.918Z,22.60
2019-05-18T09:10:21.095Z,22.30
2019-05-18T09:12:52.073Z,22.20
2019-05-18T09:15:23.373Z,22.20
2019-05-18T09:17:54.583Z,21.80
2019-05-18T09:20:25.501Z,21.80
2019-05-18T09:22:56.765Z,22.00
2019-05-18T09:25:28.005Z,21.60
2019-05-18T09:27:58.895Z,22.50
2019-05-18T09:30:29.937Z,22.40
2019-05-18T09:33:00.795Z,22.80
2019-05-18T09:35:31.450Z,23.20
2019-05-18T09:38:02.455Z,23.20
2019-05-18T09:40:33.627Z,23.90
2019-05-18T09:43:04.628Z,23.60
2019-05-18T09:45:35.295Z,23.80
2019-05-18T09:48:07.053Z,23.40
2019-05-18T09:50:39.119Z,22.70
2019-05-18T09:53:09.967Z,22.40
2019-05-18T09:55:41.050Z,23.40
2019-05-18T09:58:11.933Z,23.60
2019-05-18T10:00:42.938Z,22.60
2019-05-18T10:03:13.910Z,22.60
2019-05-18T10:05:44.582Z,22.80
2019-05-18T10:08:15.667Z,22.70
2019-05-18T10:10:46.936Z,22.30
2019-05-18T10:13:17.890Z,21.80
2019-05-18T10:15:48.829Z,21.40
2019-05-18T10:18:21.864Z,20.90
2019-05-18T10:20:53.506Z,21.10
2019-05-18T10:23:24.741Z,21.00
2019-05-18T10:25:55.623Z,21.40
2019-05-18T10:28:28.125Z,20.70
2019-05-18T10:30:59.076Z,21.00
2019-05-18T10:33:29.680Z,21.10
2019-05-18T10:36:00.555Z,21.80
2019-05-18T10:38:31.241Z,22.20
2019-05-18T10:41:02.229Z,22.70
2019-05-18T10:43:33.209Z,22.20
2019-05-18T10:46:04.248Z,22.00
2019-05-18T10:48:34.897Z,21.40
2019-05-18T10:51:05.879Z,21.10
2019-05-18T10:53:36.828Z,21.10
2019-05-18T10:56:07.684Z,21.20
2019-05-18T10:58:38.948Z,21.10
2019-05-18T11:01:10.650Z,21.30
2019-05-18T11:03:42.215Z,22.10
2019-05-18T11:06:13.105Z,22.10
2019-05-18T11:08:43.799Z,21.90
2019-05-18T11:11:14.598Z,21.90
2019-05-18T11:13:45.894Z,21.30
2019-05-18T11:16:16.809Z,21.00
2019-05-18T11:18:47.813Z,21.90
2019-05-18T11:21:18.686Z,21.90
2019-05-18T11:23:49.906Z,21.50
2019-05-18T11:26:20.796Z,21.20
2019-05-18T11:28:51.891Z,21.00
2019-05-18T11:31:22.764Z,20.70
2019-05-18T11:33:53.654Z,20.40
2019-05-18T11:36:24.877Z,20.40
2019-05-18T11:38:56.013Z,20.40
2019-05-18T11:41:28.253Z,20.80
2019-05-18T11:43:59.119Z,20.80
2019-05-18T11:46:29.799Z,20.90
2019-05-18T11:49:01.434Z,20.80
2019-05-18T11:51:32.559Z,21.00
2019-05-18T11:54:04.620Z,21.00
2019-05-18T11:56:37.272Z,20.70
2019-05-18T11:59:08.259Z,20.50
2019-05-18T12:01:39.337Z,20.90
2019-05-18T12:04:10.487Z,20.60
2019-05-18T12:06:41.196Z,20.20
2019-05-18T12:09:12.155Z,20.30
2019-05-18T12:11:43.371Z,20.10
2019-05-18T12:14:14.403Z,20.10
2019-05-18T12:16:45.150Z,20.20
2019-05-18T12:19:16.067Z,20.10
2019-05-18T12:21:47.490Z,20.10
2019-05-18T12:24:18.416Z,20.30
2019-05-18T12:26:49.762Z,20.30
2019-05-18T12:29:21.338Z,20.40
2019-05-18T12:31:52.327Z,20.40
2019-05-18T12:34:23.288Z,20.20
2019-05-18T12:36:54.650Z,20.10
2019-05-18T12:39:25.576Z,20.00
2019-05-18T12:41:56.609Z,20.00
2019-05-18T12:44:28.209Z,20.10
2019-05-18T12:46:59.259Z,20.10
2019-05-18T12:49:30.078Z,20.10
2019-05-18T12:52:01.005Z,20.20
2019-05-18T12:54:45.546Z,19.90
2019-05-18T12:57:04.746Z,19.60
2019-05-18T12:59:35.370Z,19.40
2019-05-18T13:02:06.263Z,19.40
2019-05-18T13:04:37.328Z,19.50
2019-05-18T13:07:08.249Z,19.60
2019-05-18T13:09:39.084Z,19.40
2019-05-18T13:12:11.821Z,19.20
2019-05-18T13:14:42.596Z,19.00
2019-05-18T13:17:13.625Z,18.80
2019-05-18T13:19:44.454Z,18.70
2019-05-18T13:22:15.526Z,18.50
2019-05-18T13:24:46.304Z,18.40
2019-05-18T13:27:17.526Z,18.50
2019-05-18T13:29:48.425Z,18.40
2019-05-18T13:32:19.401Z,18.20
2019-05-18T13:34:50.294Z,18.10
2019-05-18T13:37:21.255Z,18.00
2019-05-18T13:39:52.482Z,17.60
2019-05-18T13:42:23.323Z,17.60
2019-05-18T13:44:54.466Z,17.50
2019-05-18T13:47:25.245Z,17.40
2019-05-18T13:49:58.372Z,17.30
2019-05-18T13:52:29.047Z,17.10
2019-05-18T13:55:04.301Z,17.20
2019-05-18T13:57:32.970Z,17.20
2019-05-18T14:00:03.862Z,17.10
2019-05-18T14:02:34.628Z,17.00
2019-05-18T14:05:06.177Z,16.80
2019-05-18T14:07:37.152Z,16.70
2019-05-18T14:10:12.610Z,16.90
2019-05-18T14:12:43.448Z,17.10
2019-05-18T14:15:15.758Z,17.10
2019-05-18T14:17:46.384Z,16.90
2019-05-18T14:20:17.558Z,17.00
2019-05-18T14:22:48.758Z,16.90
2019-05-18T14:25:20.301Z,17.10
2019-05-18T14:27:51.218Z,17.00
2019-05-18T14:30:24.749Z,16.90
2019-05-18T14:32:55.384Z,17.00
2019-05-18T14:35:26.511Z,17.20
2019-05-18T14:37:57.165Z,17.20
2019-05-18T14:40:28.454Z,17.10
2019-05-18T14:42:59.047Z,17.10
2019-05-18T14:45:30.319Z,17.10
2019-05-18T14:48:01.207Z,16.90
2019-05-18T14:50:32.471Z,17.00
2019-05-18T14:53:03.329Z,16.90
2019-05-18T14:55:34.349Z,16.70
2019-05-18T14:58:05.326Z,16.40
2019-05-18T15:00:37.716Z,16.40
2019-05-18T15:03:08.332Z,16.10
2019-05-18T15:05:39.176Z,16.00
2019-05-18T15:08:10.055Z,15.90
2019-05-18T15:10:40.708Z,15.90
2019-05-18T15:13:11.332Z,15.90
2019-05-18T15:15:42.429Z,15.70
2019-05-18T15:18:13.333Z,15.40
2019-05-18T15:20:44.167Z,15.40
2019-05-18T15:23:15.077Z,15.20
2019-05-18T15:25:50.831Z,15.00
2019-05-18T15:28:19.098Z,14.60
2019-05-18T15:30:49.831Z,13.90
2019-05-18T15:33:20.509Z,13.50
2019-05-18T15:35:51.284Z,13.20
2019-05-18T15:38:22.089Z,13.20
2019-05-18T15:40:52.677Z,13.30
2019-05-18T15:43:23.390Z,13.20
2019-05-18T15:45:54.539Z,13.00
2019-05-18T15:48:25.475Z,13.00
2019-05-18T15:50:59.167Z,12.70
2019-05-18T15:53:28.786Z,12.60
2019-05-18T15:56:06.006Z,12.50
2019-05-18T15:58:32.337Z,12.70
2019-05-18T16:01:03.105Z,12.70
2019-05-18T16:03:34.138Z,12.70
2019-05-18T16:06:04.779Z,12.90
2019-05-18T16:08:35.403Z,13.20
2019-05-18T16:11:06.210Z,13.20
2019-05-18T16:13:36.885Z,13.10
2019-05-18T16:16:07.638Z,13.20
2019-05-18T16:18:38.567Z,13.50
2019-05-18T16:21:09.350Z,13.50
2019-05-18T16:23:40.340Z,13.20
2019-05-18T16:26:21.241Z,13.20
2019-05-18T16:28:46.831Z,13.40
2019-05-18T16:31:17.987Z,13.40
2019-05-18T16:33:48.612Z,13.30
2019-05-18T16:36:19.409Z,13.50
2019-05-18T16:38:50.348Z,13.60
2019-05-18T16:41:20.991Z,13.60
2019-05-18T16:43:51.648Z,13.60
2019-05-18T16:46:22.304Z,13.80
2019-05-18T16:48:53.298Z,13.70
2019-05-18T16:51:23.940Z,13.60
2019-05-18T16:53:54.531Z,13.60
2019-05-18T16:56:34.840Z,13.60
2019-05-18T16:58:57.822Z,13.60
2019-05-18T17:01:28.848Z,13.50
2019-05-18T17:03:59.462Z,13.50
2019-05-18T17:06:30.595Z,13.50
2019-05-18T17:09:01.352Z,13.50
2019-05-18T17:11:32.220Z,13.60
2019-05-18T17:14:02.886Z,13.60
2019-05-18T17:16:33.870Z,13.70
2019-05-18T17:19:04.528Z,13.70
2019-05-18T17:21:36.189Z,13.70
2019-05-18T17:24:06.800Z,13.50
2019-05-18T17:26:51.655Z,13.40
2019-05-18T17:29:09.739Z,13.30
2019-05-18T17:31:40.609Z,13.20
2019-05-18T17:34:11.452Z,13.10
2019-05-18T17:36:42.564Z,13.10
2019-05-18T17:39:13.455Z,13.10
2019-05-18T17:41:44.400Z,13.30
2019-05-18T17:44:15.713Z,13.40
2019-05-18T17:46:46.578Z,13.40
2019-05-18T17:49:26.353Z,13.30
2019-05-18T17:51:49.734Z,13.40
2019-05-18T17:54:20.491Z,13.30
2019-05-18T17:56:51.486Z,13.10
2019-05-18T17:59:22.572Z,13.00
2019-05-18T18:01:53.429Z,12.90
2019-05-18T18:04:24.108Z,12.90
2019-05-18T18:06:54.755Z,12.90
2019-05-18T18:09:25.553Z,13.00
2019-05-18T18:11:56.480Z,13.10
2019-05-18T18:14:28.859Z,13.20
2019-05-18T18:16:59.475Z,13.30
2019-05-18T18:19:30.359Z,13.20
2019-05-18T18:22:01.187Z,13.00
2019-05-18T18:24:32.295Z,12.70
2019-05-18T18:27:03.078Z,12.80
2019-05-18T18:29:34.005Z,13.00
2019-05-18T18:32:04.546Z,12.90
2019-05-18T18:34:35.447Z,12.70
2019-05-18T18:37:07.396Z,12.80
2019-05-18T18:39:38.317Z,12.70
2019-05-18T18:42:08.962Z,12.70
2019-05-18T18:44:39.568Z,12.60
2019-05-18T18:47:10.500Z,12.60
2019-05-18T18:49:41.422Z,12.50
2019-05-18T18:52:12.049Z,12.50
2019-05-18T18:54:42.807Z,12.40
2019-05-18T18:57:13.643Z,12.60
2019-05-18T18:59:44.999Z,12.70
2019-05-18T19:02:15.661Z,12.70
2019-05-18T19:04:46.842Z,12.80
2019-05-18T19:07:17.422Z,12.80
2019-05-18T19:09:48.646Z,12.80
2019-05-18T19:12:19.579Z,12.70
2019-05-18T19:14:50.322Z,12.70
2019-05-18T19:17:20.947Z,12.60
2019-05-18T19:19:51.616Z,12.60
2019-05-18T19:22:22.536Z,12.60
2019-05-18T19:24:55.786Z,12.60
2019-05-18T19:27:25.808Z,12.60
2019-05-18T19:29:56.660Z,12.60
2019-05-18T19:32:28.973Z,12.40
2019-05-18T19:34:59.546Z,12.50
2019-05-18T19:37:30.864Z,12.40
2019-05-18T19:40:01.631Z,12.40
2019-05-18T19:42:32.826Z,12.30
2019-05-18T19:45:03.798Z,12.20
2019-05-18T19:47:34.642Z,12.20
2019-05-18T19:50:05.330Z,12.30
2019-05-18T19:52:36.226Z,12.30
2019-05-18T19:55:07.038Z,12.30
2019-05-18T19:57:37.798Z,12.30
2019-05-18T20:00:09.248Z,12.20
2019-05-18T20:02:39.991Z,12.30
2019-05-18T20:05:10.932Z,12.20
2019-05-18T20:07:41.701Z,12.20
2019-05-18T20:10:13.506Z,12.20
2019-05-18T20:12:44.504Z,12.30
2019-05-18T20:15:15.532Z,12.40
2019-05-18T20:17:46.104Z,12.30
2019-05-18T20:20:17.142Z,12.30
2019-05-18T20:22:48.092Z,12.30
2019-05-18T20:25:18.840Z,12.30
2019-05-18T20:27:49.683Z,12.30
2019-05-18T20:30:20.522Z,12.40
2019-05-18T20:32:51.168Z,12.20
2019-05-18T20:35:21.835Z,12.20
2019-05-18T20:37:52.615Z,12.10
2019-05-18T20:40:23.284Z,12.10
2019-05-18T20:42:53.938Z,12.10
2019-05-18T20:45:24.925Z,12.10
2019-05-18T20:47:55.871Z,12.10
2019-05-18T20:50:26.662Z,12.10
2019-05-18T20:52:57.599Z,12.10
2019-05-18T20:55:29.046Z,12.10
2019-05-18T20:57:59.661Z,12.00
2019-05-18T21:00:30.963Z,12.10
2019-05-18T21:03:01.858Z,12.10
2019-05-18T21:05:32.850Z,12.10
2019-05-18T21:08:03.683Z,12.10
2019-05-18T21:10:34.898Z,12.10
2019-05-18T21:13:05.828Z,12.10
2019-05-18T21:15:37.080Z,12.10
2019-05-18T21:18:07.923Z,12.20
2019-05-18T21:20:38.805Z,12.10
2019-05-18T21:23:09.756Z,12.10
2019-05-18T21:25:41.024Z,12.20
2019-05-18T21:28:11.785Z,12.10
2019-05-18T21:30:43.184Z,12.10
2019-05-18T21:33:13.876Z,12.00
2019-05-18T21:35:44.773Z,12.00
2019-05-18T21:38:15.381Z,12.00
2019-05-18T21:40:46.359Z,12.00
2019-05-18T21:43:17.025Z,12.10
2019-05-18T21:45:47.936Z,12.20
2019-05-18T21:48:18.609Z,12.10
2019-05-18T21:50:49.299Z,12.10
2019-05-18T21:53:19.911Z,12.00
2019-05-18T21:55:50.846Z,12.10
2019-05-18T21:58:21.832Z,12.00
2019-05-18T22:00:53.151Z,12.00
2019-05-18T22:03:23.989Z,12.10
2019-05-18T22:05:54.953Z,12.00
2019-05-18T22:08:25.878Z,12.00
2019-05-18T22:10:56.691Z,12.10
2019-05-18T22:13:28.546Z,12.10
2019-05-18T22:15:59.251Z,12.10
2019-05-18T22:18:30.176Z,12.10
2019-05-18T22:21:00.976Z,12.20
2019-05-18T22:23:31.885Z,12.20
2019-05-18T22:26:02.489Z,12.10
2019-05-18T22:28:33.425Z,12.00
2019-05-18T22:31:04.088Z,12.00
2019-05-18T22:33:35.168Z,12.00
2019-05-18T22:36:06.009Z,12.00
2019-05-18T22:38:36.868Z,11.90
2019-05-18T22:41:07.449Z,12.00
2019-05-18T22:43:38.539Z,11.90
2019-05-18T22:46:09.175Z,12.00
2019-05-18T22:48:41.681Z,11.80
2019-05-18T22:51:12.519Z,11.90
2019-05-18T22:53:46.461Z,11.90
2019-05-18T22:56:15.965Z,11.90
2019-05-18T22:58:47.236Z,11.90
2019-05-18T23:01:18.009Z,11.90
2019-05-18T23:03:51.560Z,11.90
2019-05-18T23:06:21.229Z,11.80
2019-05-18T23:08:52.129Z,11.80
2019-05-18T23:11:23.038Z,11.80
2019-05-18T23:13:53.998Z,11.70
2019-05-18T23:16:24.598Z,11.70
2019-05-18T23:18:57.161Z,11.70
2019-05-18T23:21:29.372Z,11.60
2019-05-18T23:24:00.059Z,11.60
2019-05-18T23:26:30.886Z,11.60
2019-05-18T23:29:01.514Z,11.60
2019-05-18T23:31:32.204Z,11.50
2019-05-18T23:34:03.046Z,11.50
2019-05-18T23:36:33.643Z,11.50
2019-05-18T23:39:05.880Z,11.50
2019-05-18T23:41:36.509Z,11.40
2019-05-18T23:44:07.060Z,11.40
2019-05-18T23:46:37.673Z,11.40
2019-05-18T23:49:10.817Z,11.40
2019-05-18T23:51:40.870Z,11.40
2019-05-18T23:54:11.441Z,11.30
2019-05-18T23:56:42.166Z,11.40
2019-05-18T23:59:13.127Z,11.30
